Terminal Aerodrome Forecast
Issued by NWS

Home | Current Version | Previous Version | Text Only | Print | Product List | Glossary On
Versions: 1 2 3 4 5 6 7 8 9 10 11 12 13 14 15 16 17 18
000
FTUS45 KVEF 141200 AAA
TAFVGT
TAF AMD
KVGT 141236Z 1413/1512 14008KT P6SM FEW070 SCT100 BKN150
     FM150100 11012KT P6SM VCSH SCT100 BKN130 OVC200
     FM150600 18007KT P6SM SCT120 BKN150=

USA.gov is the U.S. government's official web portal to all federal, state and local government web resources and services.